createdAt,value
2018-01-10T00:00:57.815Z,1002.94
2018-01-10T00:01:57.785Z,1002.93
2018-01-10T00:02:57.765Z,1002.93
2018-01-10T00:03:57.767Z,1002.92
2018-01-10T00:04:57.739Z,1002.95
2018-01-10T00:05:57.752Z,1002.99
2018-01-10T00:06:57.720Z,1002.95
2018-01-10T00:07:57.721Z,1002.96
2018-01-10T00:08:57.718Z,1002.94
2018-01-10T00:09:57.694Z,1002.97
2018-01-10T00:10:57.677Z,1002.94
2018-01-10T00:11:57.678Z,1002.96
2018-01-10T00:12:57.663Z,1002.98
2018-01-10T00:13:57.654Z,1002.93
2018-01-10T00:14:57.633Z,1002.96
2018-01-10T00:15:57.622Z,1002.93
2018-01-10T00:16:57.610Z,1002.89
2018-01-10T00:17:57.599Z,1002.90
2018-01-10T00:18:57.595Z,1002.94
2018-01-10T00:19:57.579Z,1002.88
2018-01-10T00:20:57.567Z,1002.92
2018-01-10T00:21:57.559Z,1002.95
2018-01-10T00:22:57.558Z,1002.91
2018-01-10T00:23:57.538Z,1002.86
2018-01-10T00:24:57.534Z,1002.87
2018-01-10T00:25:57.515Z,1002.89
2018-01-10T00:26:57.506Z,1002.91
2018-01-10T00:27:57.511Z,1002.87
2018-01-10T00:28:57.483Z,1002.88
2018-01-10T00:29:57.480Z,1002.88
2018-01-10T00:30:57.462Z,1002.86
2018-01-10T00:31:57.460Z,1002.88
2018-01-10T00:32:57.438Z,1002.85
2018-01-10T00:33:57.435Z,1002.85
2018-01-10T00:34:57.425Z,1002.86
2018-01-10T00:35:57.411Z,1002.87
2018-01-10T00:36:57.398Z,1002.86
2018-01-10T00:37:57.387Z,1002.86
2018-01-10T00:38:57.382Z,1002.86
2018-01-10T00:39:57.363Z,1002.87
2018-01-10T00:40:57.354Z,1002.90
2018-01-10T00:41:57.345Z,1002.89
2018-01-10T00:42:57.334Z,1002.97
2018-01-10T00:43:57.326Z,1002.92
2018-01-10T00:44:57.316Z,1002.94
2018-01-10T00:45:57.303Z,1002.93
2018-01-10T00:46:57.292Z,1002.93
2018-01-10T00:47:57.279Z,1002.94
2018-01-10T00:48:57.279Z,1002.95
2018-01-10T00:49:57.258Z,1002.96
2018-01-10T00:50:57.246Z,1002.91
2018-01-10T00:51:57.240Z,1002.90
2018-01-10T00:52:57.228Z,1002.94
2018-01-10T00:53:57.216Z,1002.92
2018-01-10T00:54:57.211Z,1002.90
2018-01-10T00:55:57.198Z,1002.91
2018-01-10T00:56:57.183Z,1002.92
2018-01-10T00:57:57.181Z,1002.87
2018-01-10T00:58:57.172Z,1002.92
2018-01-10T00:59:57.165Z,1002.90
2018-01-10T01:00:57.212Z,1002.89
2018-01-10T01:01:57.142Z,1002.88
2018-01-10T01:02:57.140Z,1002.89
2018-01-10T01:03:57.111Z,1002.92
2018-01-10T01:04:57.103Z,1002.94
2018-01-10T01:05:57.093Z,1002.90
2018-01-10T01:06:57.078Z,1002.90
2018-01-10T01:07:57.066Z,1002.89
2018-01-10T01:08:57.058Z,1002.87
2018-01-10T01:09:57.051Z,1002.90
2018-01-10T01:10:57.045Z,1002.93
2018-01-10T01:11:57.032Z,1002.92
2018-01-10T01:13:11.789Z,1002.90
2018-01-10T01:13:57.007Z,1002.94
2018-01-10T01:14:57.001Z,1003.00
2018-01-10T01:15:56.988Z,1003.01
2018-01-10T01:16:56.978Z,1002.96
2018-01-10T01:17:56.967Z,1002.92
2018-01-10T01:18:56.955Z,1002.99
2018-01-10T01:19:56.945Z,1002.96
2018-01-10T01:20:56.939Z,1002.96
2018-01-10T01:21:56.930Z,1002.98
2018-01-10T01:22:56.912Z,1002.97
2018-01-10T01:23:56.905Z,1003.00
2018-01-10T01:24:56.894Z,1003.04
2018-01-10T01:25:56.883Z,1003.00
2018-01-10T01:26:56.880Z,1003.00
2018-01-10T01:27:56.861Z,1003.00
2018-01-10T01:28:56.854Z,1003.00
2018-01-10T01:29:56.844Z,1003.01
2018-01-10T01:30:56.829Z,1003.01
2018-01-10T01:31:56.818Z,1002.98
2018-01-10T01:32:56.812Z,1002.98
2018-01-10T01:33:56.803Z,1002.97
2018-01-10T01:34:56.790Z,1002.96
2018-01-10T01:35:56.780Z,1002.99
2018-01-10T01:36:56.768Z,1002.94
2018-01-10T01:37:56.757Z,1002.97
2018-01-10T01:38:56.747Z,1002.94
2018-01-10T01:39:56.739Z,1002.99
2018-01-10T01:40:56.732Z,1002.97
2018-01-10T01:41:56.720Z,1002.95
2018-01-10T01:42:56.709Z,1002.97
2018-01-10T01:43:56.697Z,1002.98
2018-01-10T01:44:56.700Z,1002.97
2018-01-10T01:45:56.695Z,1003.00
2018-01-10T01:46:56.669Z,1002.99
2018-01-10T01:47:56.655Z,1002.97
2018-01-10T01:48:56.644Z,1002.98
2018-01-10T01:49:56.637Z,1002.96
2018-01-10T01:50:56.626Z,1002.98
2018-01-10T01:51:56.611Z,1002.98
2018-01-10T01:52:56.602Z,1002.95
2018-01-10T01:53:56.591Z,1002.94
2018-01-10T01:54:56.583Z,1002.95
2018-01-10T01:55:56.575Z,1002.95
2018-01-10T01:56:56.562Z,1002.94
2018-01-10T01:57:56.553Z,1002.99
2018-01-10T01:58:56.543Z,1002.98
2018-01-10T01:59:56.531Z,1002.95
2018-01-10T02:00:56.521Z,1002.97
2018-01-10T02:01:56.514Z,1002.93
2018-01-10T02:02:56.502Z,1002.96
2018-01-10T02:03:56.492Z,1002.93
2018-01-10T02:04:56.481Z,1002.93
2018-01-10T02:05:56.470Z,1002.93
2018-01-10T02:06:56.463Z,1002.90
2018-01-10T02:07:56.451Z,1002.89
2018-01-10T02:08:56.440Z,1002.92
2018-01-10T02:09:56.431Z,1002.87
2018-01-10T02:10:56.420Z,1002.87
2018-01-10T02:11:56.409Z,1002.89
2018-01-10T02:12:56.397Z,1002.88
2018-01-10T02:13:56.395Z,1002.87
2018-01-10T02:14:56.385Z,1002.84
2018-01-10T02:15:56.376Z,1002.80
2018-01-10T02:16:56.360Z,1002.84
2018-01-10T02:17:56.346Z,1002.82
2018-01-10T02:18:56.342Z,1002.82
2018-01-10T02:19:56.333Z,1002.84
2018-01-10T02:20:56.330Z,1002.82
2018-01-10T02:21:56.313Z,1002.78
2018-01-10T02:22:56.306Z,1002.78
2018-01-10T02:23:56.311Z,1002.79
2018-01-10T02:24:56.280Z,1002.79
2018-01-10T02:25:56.282Z,1002.79
2018-01-10T02:26:56.266Z,1002.75
2018-01-10T02:27:56.247Z,1002.76
2018-01-10T02:28:56.247Z,1002.77
2018-01-10T02:29:56.230Z,1002.76
2018-01-10T02:30:56.217Z,1002.72
2018-01-10T02:31:56.230Z,1002.75
2018-01-10T02:32:56.195Z,1002.72
2018-01-10T02:33:56.208Z,1002.71
2018-01-10T02:34:56.174Z,1002.74
2018-01-10T02:35:56.167Z,1002.71
2018-01-10T02:36:56.150Z,1002.71
2018-01-10T02:37:56.142Z,1002.68
2018-01-10T02:38:56.133Z,1002.70
2018-01-10T02:39:56.122Z,1002.67
2018-01-10T02:40:56.116Z,1002.70
2018-01-10T02:41:56.113Z,1002.70
2018-01-10T02:42:56.093Z,1002.69
2018-01-10T02:43:56.081Z,1002.69
2018-01-10T02:44:56.075Z,1002.65
2018-01-10T02:45:56.065Z,1002.66
2018-01-10T02:46:56.071Z,1002.68
2018-01-10T02:47:56.043Z,1002.66
2018-01-10T02:48:56.070Z,1002.63
2018-01-10T02:49:56.029Z,1002.65
2018-01-10T02:50:56.059Z,1002.64
2018-01-10T02:51:56.021Z,1002.65
2018-01-10T02:52:56.006Z,1002.65
2018-01-10T02:53:55.984Z,1002.66
2018-01-10T02:54:55.971Z,1002.68
2018-01-10T02:55:55.958Z,1002.66
2018-01-10T02:56:55.947Z,1002.68
2018-01-10T02:57:55.942Z,1002.66
2018-01-10T02:58:55.928Z,1002.67
2018-01-10T02:59:55.920Z,1002.68
2018-01-10T03:00:55.911Z,1002.69
2018-01-10T03:01:55.901Z,1002.65
2018-01-10T03:02:55.886Z,1002.67
2018-01-10T03:03:55.878Z,1002.62
2018-01-10T03:04:55.866Z,1002.63
2018-01-10T03:05:55.862Z,1002.65
2018-01-10T03:06:55.846Z,1002.63
2018-01-10T03:07:55.836Z,1002.65
2018-01-10T03:08:55.826Z,1002.64
2018-01-10T03:09:55.818Z,1002.70
2018-01-10T03:10:55.805Z,1002.64
2018-01-10T03:11:55.799Z,1002.65
2018-01-10T03:12:55.788Z,1002.68
2018-01-10T03:13:55.772Z,1002.69
2018-01-10T03:14:55.764Z,1002.70
2018-01-10T03:15:55.749Z,1002.69
2018-01-10T03:16:55.745Z,1002.69
2018-01-10T03:17:55.742Z,1002.72
2018-01-10T03:18:55.724Z,1002.70
2018-01-10T03:19:55.710Z,1002.70
2018-01-10T03:20:55.702Z,1002.71
2018-01-10T03:21:55.694Z,1002.67
2018-01-10T03:22:55.679Z,1002.66
2018-01-10T03:23:55.673Z,1002.68
2018-01-10T03:24:55.665Z,1002.65
2018-01-10T03:25:55.660Z,1002.65
2018-01-10T03:26:55.644Z,1002.67
2018-01-10T03:27:55.629Z,1002.68
2018-01-10T03:28:55.616Z,1002.70
2018-01-10T03:29:55.623Z,1002.71
2018-01-10T03:30:55.619Z,1002.69
2018-01-10T03:31:55.591Z,1002.66
2018-01-10T03:32:55.581Z,1002.64
2018-01-10T03:33:55.566Z,1002.64
2018-01-10T03:34:55.558Z,1002.65
2018-01-10T03:35:55.546Z,1002.66
2018-01-10T03:36:55.539Z,1002.65
2018-01-10T03:37:55.530Z,1002.66
2018-01-10T03:38:55.524Z,1002.63
2018-01-10T03:39:55.525Z,1002.65
2018-01-10T03:40:55.496Z,1002.61
2018-01-10T03:41:55.490Z,1002.63
2018-01-10T03:42:55.475Z,1002.63
2018-01-10T03:43:55.488Z,1002.64
2018-01-10T03:44:55.459Z,1002.60
2018-01-10T03:45:55.448Z,1002.59
2018-01-10T03:46:55.471Z,1002.54
2018-01-10T03:47:55.429Z,1002.60
2018-01-10T03:48:55.415Z,1002.60
2018-01-10T03:49:55.409Z,1002.61
2018-01-10T03:50:55.422Z,1002.62
2018-01-10T03:51:55.395Z,1002.63
2018-01-10T03:52:55.373Z,1002.60
2018-01-10T03:53:55.371Z,1002.59
2018-01-10T03:54:55.356Z,1002.61
2018-01-10T03:55:55.351Z,1002.62
2018-01-10T03:56:55.344Z,1002.65
2018-01-10T03:57:55.352Z,1002.64
2018-01-10T03:58:55.315Z,1002.61
2018-01-10T03:59:55.305Z,1002.60
2018-01-10T04:00:55.298Z,1002.66
2018-01-10T04:01:55.290Z,1002.61
2018-01-10T04:02:55.288Z,1002.58
2018-01-10T04:03:55.268Z,1002.57
2018-01-10T04:04:55.268Z,1002.57
2018-01-10T04:05:55.244Z,1002.59
2018-01-10T04:06:55.232Z,1002.58
2018-01-10T04:07:55.220Z,1002.59
2018-01-10T04:08:55.212Z,1002.57
2018-01-10T04:09:55.202Z,1002.54
2018-01-10T04:10:55.210Z,1002.51
2018-01-10T04:11:55.187Z,1002.54
2018-01-10T04:12:55.174Z,1002.52
2018-01-10T04:13:55.159Z,1002.53
2018-01-10T04:14:55.154Z,1002.50
2018-01-10T04:15:55.139Z,1002.49
2018-01-10T04:16:55.138Z,1002.55
2018-01-10T04:17:55.128Z,1002.50
2018-01-10T04:18:55.113Z,1002.53
2018-01-10T04:19:55.098Z,1002.54
2018-01-10T04:20:55.091Z,1002.55
2018-01-10T04:21:55.078Z,1002.54
2018-01-10T04:22:55.069Z,1002.54
2018-01-10T04:23:55.059Z,1002.53
2018-01-10T04:24:55.050Z,1002.51
2018-01-10T04:25:55.037Z,1002.54
2018-01-10T04:26:55.028Z,1002.52
2018-01-10T04:27:55.018Z,1002.48
2018-01-10T04:28:55.009Z,1002.50
2018-01-10T04:29:54.993Z,1002.46
2018-01-10T04:30:54.986Z,1002.50
2018-01-10T04:31:54.980Z,1002.49
2018-01-10T04:32:54.967Z,1002.51
2018-01-10T04:33:54.963Z,1002.53
2018-01-10T04:34:54.942Z,1002.49
2018-01-10T04:35:54.937Z,1002.48
2018-01-10T04:36:54.924Z,1002.46
2018-01-10T04:37:54.916Z,1002.45
2018-01-10T04:38:54.901Z,1002.45
2018-01-10T04:39:54.894Z,1002.43
2018-01-10T04:40:54.881Z,1002.46
2018-01-10T04:41:54.872Z,1002.43
2018-01-10T04:42:54.863Z,1002.44
2018-01-10T04:43:54.853Z,1002.40
2018-01-10T04:44:54.844Z,1002.42
2018-01-10T04:45:54.837Z,1002.44
2018-01-10T04:46:54.823Z,1002.42
2018-01-10T04:47:54.813Z,1002.41
2018-01-10T04:48:54.803Z,1002.42
2018-01-10T04:49:54.793Z,1002.43
2018-01-10T04:50:54.782Z,1002.44
2018-01-10T04:51:54.773Z,1002.45
2018-01-10T04:52:54.764Z,1002.43
2018-01-10T04:53:54.753Z,1002.44
2018-01-10T04:54:54.738Z,1002.42
2018-01-10T04:55:54.737Z,1002.46
2018-01-10T04:56:54.721Z,1002.46
2018-01-10T04:57:54.732Z,1002.46
2018-01-10T04:58:54.751Z,1002.44
2018-01-10T04:59:54.691Z,1002.43
2018-01-10T05:00:54.679Z,1002.47
2018-01-10T05:01:54.686Z,1002.47
2018-01-10T05:02:54.660Z,1002.45
2018-01-10T05:03:54.651Z,1002.45
2018-01-10T05:04:54.644Z,1002.43
2018-01-10T05:05:54.631Z,1002.41
2018-01-10T05:06:54.616Z,1002.40
2018-01-10T05:07:54.614Z,1002.41
2018-01-10T05:08:54.601Z,1002.39
2018-01-10T05:09:54.595Z,1002.42
2018-01-10T05:10:54.577Z,1002.40
2018-01-10T05:11:54.565Z,1002.37
2018-01-10T05:12:54.563Z,1002.38
2018-01-10T05:13:54.559Z,1002.38
2018-01-10T05:14:54.538Z,1002.36
2018-01-10T05:15:54.525Z,1002.41
2018-01-10T05:16:54.518Z,1002.39
2018-01-10T05:17:54.510Z,1002.39
2018-01-10T05:18:54.504Z,1002.40
2018-01-10T05:19:54.490Z,1002.39
2018-01-10T05:20:54.477Z,1002.37
2018-01-10T05:21:54.469Z,1002.40
2018-01-10T05:22:54.456Z,1002.38
2018-01-10T05:23:54.447Z,1002.40
2018-01-10T05:24:54.439Z,1002.40
2018-01-10T05:25:54.428Z,1002.44
2018-01-10T05:26:54.414Z,1002.46
2018-01-10T05:27:54.418Z,1002.42
2018-01-10T05:28:54.398Z,1002.41
2018-01-10T05:29:54.389Z,1002.40
2018-01-10T05:30:54.379Z,1002.39
2018-01-10T05:31:54.368Z,1002.37
2018-01-10T05:32:54.357Z,1002.42
2018-01-10T05:33:54.407Z,1002.40
2018-01-10T05:34:54.338Z,1002.39
2018-01-10T05:35:54.348Z,1002.36
2018-01-10T05:36:54.321Z,1002.37
2018-01-10T05:37:54.309Z,1002.34
2018-01-10T05:38:54.305Z,1002.38
2018-01-10T05:39:54.297Z,1002.36
2018-01-10T05:40:54.279Z,1002.35
2018-01-10T05:41:54.281Z,1002.38
2018-01-10T05:42:54.261Z,1002.35
2018-01-10T05:43:54.250Z,1002.36
2018-01-10T05:44:54.236Z,1002.33
2018-01-10T05:45:54.239Z,1002.38
2018-01-10T05:46:54.217Z,1002.36
2018-01-10T05:47:54.216Z,1002.35
2018-01-10T05:48:54.207Z,1002.35
2018-01-10T05:49:54.197Z,1002.39
2018-01-10T05:50:54.185Z,1002.35
2018-01-10T05:51:54.168Z,1002.35
2018-01-10T05:52:54.160Z,1002.37
2018-01-10T05:53:54.148Z,1002.39
2018-01-10T05:54:54.141Z,1002.32
2018-01-10T05:55:54.137Z,1002.34
2018-01-10T05:56:54.126Z,1002.34
2018-01-10T05:57:54.121Z,1002.32
2018-01-10T05:58:54.108Z,1002.29
2018-01-10T05:59:54.092Z,1002.29
2018-01-10T06:00:54.083Z,1002.30
2018-01-10T06:01:54.117Z,1002.28
2018-01-10T06:02:54.063Z,1002.31
2018-01-10T06:03:54.054Z,1002.32
2018-01-10T06:04:54.044Z,1002.31
2018-01-10T06:05:54.031Z,1002.27
2018-01-10T06:06:54.021Z,1002.31
2018-01-10T06:07:54.010Z,1002.31
2018-01-10T06:08:54.003Z,1002.31
2018-01-10T06:09:53.988Z,1002.32
2018-01-10T06:10:53.993Z,1002.33
2018-01-10T06:11:53.973Z,1002.31
2018-01-10T06:12:53.960Z,1002.35
2018-01-10T06:13:53.977Z,1002.35
2018-01-10T06:14:53.953Z,1002.35
2018-01-10T06:15:53.942Z,1002.37
2018-01-10T06:16:53.924Z,1002.33
2018-01-10T06:17:53.913Z,1002.36
2018-01-10T06:18:53.901Z,1002.40
2018-01-10T06:19:53.893Z,1002.38
2018-01-10T06:20:53.880Z,1002.41
2018-01-10T06:21:53.877Z,1002.42
2018-01-10T06:22:53.866Z,1002.37
2018-01-10T06:23:53.852Z,1002.40
2018-01-10T06:24:53.847Z,1002.41
2018-01-10T06:25:53.832Z,1002.41
2018-01-10T06:26:53.826Z,1002.43
2018-01-10T06:27:53.813Z,1002.37
2018-01-10T06:28:53.805Z,1002.34
2018-01-10T06:29:53.793Z,1002.39
2018-01-10T06:30:53.786Z,1002.40
2018-01-10T06:31:53.770Z,1002.38
2018-01-10T06:32:53.764Z,1002.40
2018-01-10T06:33:53.751Z,1002.43
2018-01-10T06:34:53.744Z,1002.40
2018-01-10T06:35:53.752Z,1002.44
2018-01-10T06:36:53.724Z,1002.44
2018-01-10T06:37:53.713Z,1002.44
2018-01-10T06:38:53.703Z,1002.45
2018-01-10T06:39:53.691Z,1002.42
2018-01-10T06:40:53.686Z,1002.48
2018-01-10T06:41:53.675Z,1002.49
2018-01-10T06:42:53.689Z,1002.46
2018-01-10T06:43:53.654Z,1002.49
2018-01-10T06:44:53.641Z,1002.55
2018-01-10T06:45:53.632Z,1002.52
2018-01-10T06:46:53.623Z,1002.49
2018-01-10T06:47:53.626Z,1002.47
2018-01-10T06:48:53.604Z,1002.52
2018-01-10T06:49:53.594Z,1002.49
2018-01-10T06:50:53.582Z,1002.48
2018-01-10T06:51:53.570Z,1002.52
2018-01-10T06:52:53.570Z,1002.48
2018-01-10T06:53:53.605Z,1002.46
2018-01-10T06:54:53.550Z,1002.46
2018-01-10T06:55:53.536Z,1002.50
2018-01-10T06:56:53.522Z,1002.49
2018-01-10T06:57:53.510Z,1002.49
2018-01-10T06:58:53.502Z,1002.50
2018-01-10T06:59:53.778Z,1002.50
2018-01-10T07:00:53.482Z,1002.49
2018-01-10T07:01:53.479Z,1002.47
2018-01-10T07:02:53.462Z,1002.46
2018-01-10T07:03:53.455Z,1002.50
2018-01-10T07:04:53.442Z,1002.52
2018-01-10T07:05:53.436Z,1002.49
2018-01-10T07:06:53.431Z,1002.52
2018-01-10T07:07:53.412Z,1002.53
2018-01-10T07:08:53.408Z,1002.51
2018-01-10T07:09:53.391Z,1002.56
2018-01-10T07:10:53.393Z,1002.56
2018-01-10T07:11:53.377Z,1002.51
2018-01-10T07:12:53.379Z,1002.54
2018-01-10T07:13:53.347Z,1002.51
2018-01-10T07:14:53.342Z,1002.52
2018-01-10T07:15:53.345Z,1002.57
2018-01-10T07:16:53.319Z,1002.55
2018-01-10T07:17:53.336Z,1002.52
2018-01-10T07:18:53.304Z,1002.57
2018-01-10T07:19:53.296Z,1002.58
2018-01-10T07:20:53.282Z,1002.58
2018-01-10T07:21:53.276Z,1002.57
2018-01-10T07:22:53.261Z,1002.54
2018-01-10T07:23:53.248Z,1002.51
2018-01-10T07:24:53.268Z,1002.55
2018-01-10T07:25:53.229Z,1002.57
2018-01-10T07:26:53.241Z,1002.57
2018-01-10T07:27:53.214Z,1002.58
2018-01-10T07:28:53.201Z,1002.56
2018-01-10T07:29:53.191Z,1002.56
2018-01-10T07:30:53.187Z,1002.58
2018-01-10T07:31:53.180Z,1002.55
2018-01-10T07:32:53.162Z,1002.55
2018-01-10T07:33:53.161Z,1002.55
2018-01-10T07:34:53.137Z,1002.56
2018-01-10T07:35:53.178Z,1002.58
2018-01-10T07:36:53.135Z,1002.59
2018-01-10T07:37:53.143Z,1002.59
2018-01-10T07:38:53.125Z,1002.61
2018-01-10T07:39:53.128Z,1002.61
2018-01-10T07:40:53.083Z,1002.62
2018-01-10T07:41:53.066Z,1002.60
2018-01-10T07:42:53.058Z,1002.60
2018-01-10T07:43:53.048Z,1002.61
2018-01-10T07:44:53.038Z,1002.59
2018-01-10T07:45:53.031Z,1002.61
2018-01-10T07:46:53.022Z,1002.61
2018-01-10T07:47:53.006Z,1002.57
2018-01-10T07:48:52.995Z,1002.60
2018-01-10T07:49:52.991Z,1002.61
2018-01-10T07:50:52.981Z,1002.60
2018-01-10T07:51:52.973Z,1002.60
2018-01-10T07:52:52.986Z,1002.64
2018-01-10T07:53:52.947Z,1002.66
2018-01-10T07:54:52.936Z,1002.63
2018-01-10T07:55:52.924Z,1002.63
2018-01-10T07:56:52.918Z,1002.61
2018-01-10T07:57:52.912Z,1002.64
2018-01-10T07:58:52.908Z,1002.65
2018-01-10T07:59:52.897Z,1002.65
2018-01-10T08:00:52.875Z,1002.64
2018-01-10T08:01:52.868Z,1002.66
2018-01-10T08:02:52.855Z,1002.68
2018-01-10T08:03:52.842Z,1002.73
2018-01-10T08:04:52.850Z,1002.71
2018-01-10T08:05:52.828Z,1002.71
2018-01-10T08:06:52.816Z,1002.72
2018-01-10T08:07:52.807Z,1002.71
2018-01-10T08:08:52.802Z,1002.73
2018-01-10T08:09:52.781Z,1002.73
2018-01-10T08:10:52.778Z,1002.74
2018-01-10T08:11:52.762Z,1002.76
2018-01-10T08:12:52.761Z,1002.78
2018-01-10T08:13:52.756Z,1002.79
2018-01-10T08:14:52.740Z,1002.78
2018-01-10T08:15:52.725Z,1002.76
2018-01-10T08:16:52.717Z,1002.76
2018-01-10T08:17:52.702Z,1002.75
2018-01-10T08:18:52.699Z,1002.74
2018-01-10T08:19:52.686Z,1002.74
2018-01-10T08:20:52.684Z,1002.78
2018-01-10T08:21:52.663Z,1002.77
2018-01-10T08:22:52.653Z,1002.80
2018-01-10T08:23:52.644Z,1002.78
2018-01-10T08:24:52.639Z,1002.81
2018-01-10T08:25:52.625Z,1002.80
2018-01-10T08:26:52.619Z,1002.76
2018-01-10T08:27:52.600Z,1002.79
2018-01-10T08:28:52.595Z,1002.82
2018-01-10T08:29:52.581Z,1002.81
2018-01-10T08:30:52.584Z,1002.82
2018-01-10T08:31:52.584Z,1002.83
2018-01-10T08:32:52.566Z,1002.82
2018-01-10T08:33:52.545Z,1002.83
2018-01-10T08:34:52.533Z,1002.84
2018-01-10T08:35:52.536Z,1002.84
2018-01-10T08:36:52.518Z,1002.87
2018-01-10T08:37:52.520Z,1002.84
2018-01-10T08:38:52.508Z,1002.88
2018-01-10T08:39:52.483Z,1002.92
2018-01-10T08:40:52.480Z,1002.91
2018-01-10T08:41:52.469Z,1002.89
2018-01-10T08:42:52.454Z,1002.89
2018-01-10T08:43:52.449Z,1002.88
2018-01-10T08:44:52.437Z,1002.90
2018-01-10T08:45:52.429Z,1002.91
2018-01-10T08:46:52.420Z,1002.92
2018-01-10T08:47:52.413Z,1002.90
2018-01-10T08:48:52.397Z,1002.86
2018-01-10T08:49:52.392Z,1002.87
2018-01-10T08:50:52.379Z,1002.91
2018-01-10T08:51:52.372Z,1002.92
2018-01-10T08:52:52.372Z,1002.90
2018-01-10T08:53:52.355Z,1002.89
2018-01-10T08:54:52.353Z,1002.92
2018-01-10T08:55:52.336Z,1002.94
2018-01-10T08:56:52.327Z,1002.95
2018-01-10T08:57:52.319Z,1002.94
2018-01-10T08:58:52.313Z,1002.93
2018-01-10T08:59:52.302Z,1002.97
2018-01-10T09:00:52.286Z,1002.97
2018-01-10T09:01:52.277Z,1002.96
2018-01-10T09:02:52.272Z,1002.98
2018-01-10T09:03:52.280Z,1003.00
2018-01-10T09:04:52.253Z,1002.98
2018-01-10T09:05:52.244Z,1002.96
2018-01-10T09:06:52.236Z,1002.95
2018-01-10T09:07:52.224Z,1002.99
2018-01-10T09:08:52.223Z,1003.00
2018-01-10T09:09:52.213Z,1002.98
2018-01-10T09:10:52.204Z,1002.98
2018-01-10T09:11:52.186Z,1002.97
2018-01-10T09:12:52.179Z,1002.99
2018-01-10T09:13:52.168Z,1003.02
2018-01-10T09:14:52.156Z,1003.02
2018-01-10T09:15:52.154Z,1003.02
2018-01-10T09:16:52.142Z,1002.99
2018-01-10T09:17:52.135Z,1003.04
2018-01-10T09:18:52.128Z,1002.98
2018-01-10T09:19:52.111Z,1002.99
2018-01-10T09:20:52.101Z,1003.00
2018-01-10T09:21:52.096Z,1002.98
2018-01-10T09:22:52.087Z,1002.98
2018-01-10T09:23:52.088Z,1002.94
2018-01-10T09:24:52.067Z,1002.97
2018-01-10T09:25:52.059Z,1002.97
2018-01-10T09:26:52.047Z,1002.98
2018-01-10T09:27:52.036Z,1002.99
2018-01-10T09:28:52.028Z,1003.01
2018-01-10T09:29:52.024Z,1002.99
2018-01-10T09:30:52.015Z,1003.02
2018-01-10T09:31:52.036Z,1003.01
2018-01-10T09:32:51.995Z,1003.00
2018-01-10T09:33:51.981Z,1002.99
2018-01-10T09:34:51.975Z,1003.01
2018-01-10T09:35:51.973Z,1002.99
2018-01-10T09:36:51.956Z,1003.05
2018-01-10T09:37:51.945Z,1003.06
2018-01-10T09:38:51.939Z,1003.07
2018-01-10T09:39:51.923Z,1003.08
2018-01-10T09:40:51.921Z,1003.12
2018-01-10T09:41:51.910Z,1003.08
2018-01-10T09:42:51.897Z,1003.11
2018-01-10T09:43:51.888Z,1003.08
2018-01-10T09:44:51.881Z,1003.06
2018-01-10T09:45:51.873Z,1003.03
2018-01-10T09:46:51.857Z,1003.07
2018-01-10T09:47:51.849Z,1003.07
2018-01-10T09:48:51.838Z,1003.05
2018-01-10T09:49:51.836Z,1003.06
2018-01-10T09:50:51.823Z,1003.07
2018-01-10T09:51:51.814Z,1003.07
2018-01-10T09:52:51.801Z,1003.05
2018-01-10T09:53:51.794Z,1003.04
2018-01-10T09:54:51.786Z,1003.06
2018-01-10T09:55:51.774Z,1003.04
2018-01-10T09:56:51.764Z,1003.02
2018-01-10T09:57:51.754Z,1003.05
2018-01-10T09:58:51.753Z,1003.04
2018-01-10T09:59:51.734Z,1002.95
2018-01-10T10:00:51.728Z,1002.96
2018-01-10T10:01:51.717Z,1002.95
2018-01-10T10:02:51.707Z,1003.00
2018-01-10T10:03:51.698Z,1002.98
2018-01-10T10:04:51.691Z,1002.93
2018-01-10T10:05:51.681Z,1002.91
2018-01-10T10:06:51.665Z,1002.92
2018-01-10T10:07:51.662Z,1002.95
2018-01-10T10:08:51.651Z,1002.89
2018-01-10T10:09:51.643Z,1002.91
2018-01-10T10:10:51.648Z,1002.90
2018-01-10T10:11:51.620Z,1002.90
2018-01-10T10:12:51.614Z,1002.87
2018-01-10T10:13:51.599Z,1002.84
2018-01-10T10:14:51.603Z,1002.80
2018-01-10T10:15:51.608Z,1002.82
2018-01-10T10:16:51.579Z,1002.81
2018-01-10T10:17:51.566Z,1002.76
2018-01-10T10:18:51.558Z,1002.74
2018-01-10T10:19:51.547Z,1002.74
2018-01-10T10:20:51.535Z,1002.75
2018-01-10T10:21:51.528Z,1002.70
2018-01-10T10:22:51.520Z,1002.74
2018-01-10T10:23:51.510Z,1002.70
2018-01-10T10:24:51.500Z,1002.73
2018-01-10T10:25:51.492Z,1002.70
2018-01-10T10:26:51.480Z,1002.69
2018-01-10T10:27:51.474Z,1002.72
2018-01-10T10:28:51.466Z,1002.71
2018-01-10T10:29:51.454Z,1002.66
2018-01-10T10:30:51.442Z,1002.67
2018-01-10T10:31:51.437Z,1002.67
2018-01-10T10:32:51.426Z,1002.70
2018-01-10T10:33:51.415Z,1002.72
2018-01-10T10:34:51.409Z,1002.67
2018-01-10T10:35:51.399Z,1002.67
2018-01-10T10:36:51.393Z,1002.76
2018-01-10T10:37:51.385Z,1002.68
2018-01-10T10:38:51.372Z,1002.65
2018-01-10T10:39:51.361Z,1002.62
2018-01-10T10:40:51.350Z,1002.62
2018-01-10T10:41:51.344Z,1002.65
2018-01-10T10:42:51.336Z,1002.63
2018-01-10T10:43:51.325Z,1002.62
2018-01-10T10:44:51.322Z,1002.61
2018-01-10T10:45:51.312Z,1002.59
2018-01-10T10:46:51.322Z,1002.56
2018-01-10T10:47:51.295Z,1002.58
2018-01-10T10:48:51.283Z,1002.60
2018-01-10T10:49:51.284Z,1002.57
2018-01-10T10:50:51.263Z,1002.55
2018-01-10T10:51:51.257Z,1002.56
2018-01-10T10:52:51.256Z,1002.56
2018-01-10T10:53:51.237Z,1002.59
2018-01-10T10:54:51.235Z,1002.55
2018-01-10T10:55:51.220Z,1002.54
2018-01-10T10:56:51.208Z,1002.55
2018-01-10T10:57:51.203Z,1002.56
2018-01-10T10:58:51.195Z,1002.57
2018-01-10T10:59:51.184Z,1002.58
2018-01-10T11:00:51.189Z,1002.50
2018-01-10T11:01:51.172Z,1002.56
2018-01-10T11:02:51.159Z,1002.55
2018-01-10T11:03:51.146Z,1002.55
2018-01-10T11:04:51.138Z,1002.57
2018-01-10T11:05:51.133Z,1002.53
2018-01-10T11:06:51.120Z,1002.53
2018-01-10T11:07:51.111Z,1002.53
2018-01-10T11:08:51.106Z,1002.54
2018-01-10T11:09:51.092Z,1002.50
2018-01-10T11:10:51.084Z,1002.47
2018-01-10T11:11:51.076Z,1002.47
2018-01-10T11:12:51.073Z,1002.45
2018-01-10T11:13:51.062Z,1002.47
2018-01-10T11:14:51.044Z,1002.42
2018-01-10T11:15:51.038Z,1002.41
2018-01-10T11:16:51.030Z,1002.45
2018-01-10T11:17:51.028Z,1002.40
2018-01-10T11:18:51.015Z,1002.37
2018-01-10T11:19:51.003Z,1002.41
2018-01-10T11:20:50.992Z,1002.37
2018-01-10T11:21:50.987Z,1002.38
2018-01-10T11:22:50.979Z,1002.39
2018-01-10T11:23:50.969Z,1002.35
2018-01-10T11:24:50.959Z,1002.34
2018-01-10T11:25:50.966Z,1002.38
2018-01-10T11:26:50.942Z,1002.37
2018-01-10T11:27:50.929Z,1002.35
2018-01-10T11:28:50.924Z,1002.33
2018-01-10T11:29:50.970Z,1002.30
2018-01-10T11:30:50.923Z,1002.26
2018-01-10T11:31:50.935Z,1002.22
2018-01-10T11:32:50.888Z,1002.23
2018-01-10T11:33:50.881Z,1002.19
2018-01-10T11:34:50.869Z,1002.15
2018-01-10T11:35:50.859Z,1002.21
2018-01-10T11:36:50.856Z,1002.12
2018-01-10T11:37:50.844Z,1002.14
2018-01-10T11:38:50.855Z,1002.12
2018-01-10T11:39:50.862Z,1002.11
2018-01-10T11:40:50.905Z,1002.08
2018-01-10T11:41:50.823Z,1002.11
2018-01-10T11:42:50.883Z,1002.10
2018-01-10T11:43:50.815Z,1002.08
2018-01-10T11:44:50.802Z,1002.07
2018-01-10T11:45:50.778Z,1002.06
2018-01-10T11:46:50.769Z,1002.10
2018-01-10T11:47:50.764Z,1002.08
2018-01-10T11:48:50.749Z,1002.10
2018-01-10T11:49:50.744Z,1002.08
2018-01-10T11:50:50.738Z,1002.12
2018-01-10T11:51:50.729Z,1002.12
2018-01-10T11:52:50.716Z,1002.13
2018-01-10T11:53:50.709Z,1002.16
2018-01-10T11:54:50.702Z,1002.05
2018-01-10T11:55:50.695Z,1002.11
2018-01-10T11:56:50.685Z,1002.08
2018-01-10T11:57:50.674Z,1002.09
2018-01-10T11:58:50.671Z,1002.09
2018-01-10T11:59:50.663Z,1002.08
2018-01-10T12:00:50.650Z,1002.09
2018-01-10T12:01:50.653Z,1002.05
2018-01-10T12:02:50.652Z,1002.10
2018-01-10T12:03:50.629Z,1002.07
2018-01-10T12:04:50.624Z,1002.05
2018-01-10T12:05:50.611Z,1002.08